createdAt,value
2023-04-26T09:18:44.080Z,10.22
2023-04-26T09:19:44.013Z,10.44
2023-04-26T09:20:44.004Z,10.27
2023-04-26T09:21:44.041Z,10.41
2023-04-26T09:22:44.015Z,10.70
2023-04-26T09:23:43.984Z,10.84
2023-04-26T09:24:44.083Z,10.66
2023-04-26T09:50:27.566Z,10.34
2023-04-26T09:51:27.394Z,10.33
2023-04-26T09:52:27.371Z,10.45
2023-04-26T09:53:27.428Z,10.47
2023-04-26T09:54:27.378Z,10.59
2023-04-26T09:55:34.586Z,10.53
2023-04-26T09:56:27.325Z,10.91
2023-04-26T09:57:27.366Z,10.81
2023-04-26T09:58:27.304Z,10.84
2023-04-26T09:59:27.306Z,10.96
2023-04-26T10:00:27.292Z,10.89
2023-04-26T10:01:27.303Z,10.92
2023-04-26T10:02:27.518Z,10.84
2023-04-26T10:03:27.393Z,10.70
2023-04-26T10:04:27.263Z,10.84
2023-04-26T10:05:27.221Z,10.97
2023-04-26T10:06:27.208Z,11.15
2023-04-26T10:07:27.185Z,11.07
2023-04-26T10:08:27.181Z,10.99
2023-04-26T10:09:27.186Z,10.99
2023-04-26T10:10:27.156Z,10.68
2023-04-26T10:11:27.161Z,10.53
2023-04-26T10:12:27.125Z,10.44
2023-04-26T10:13:27.104Z,10.42
2023-04-26T10:14:27.113Z,10.40
2023-04-26T10:15:27.094Z,10.70
2023-04-26T10:16:27.131Z,10.88
2023-04-26T10:17:27.094Z,10.82
2023-04-26T10:18:27.041Z,10.88
2023-04-26T10:19:27.054Z,10.97
2023-04-26T10:20:27.003Z,10.79
2023-04-26T10:21:27.012Z,10.84
2023-04-26T10:22:26.987Z,10.56
2023-04-26T10:26:21.549Z,10.97
2023-04-26T10:27:21.542Z,10.82
2023-04-26T10:28:21.513Z,10.78
2023-04-26T10:29:21.524Z,10.85
2023-04-26T10:30:21.481Z,10.81
2023-04-26T10:31:21.459Z,10.86
2023-04-26T10:32:21.462Z,10.91
2023-04-26T10:33:21.486Z,11.10
2023-04-26T10:34:21.442Z,11.28
2023-04-26T10:35:21.423Z,11.51
2023-04-26T10:36:21.378Z,11.65
2023-04-26T10:37:21.396Z,11.29
2023-04-26T10:38:21.377Z,11.54
2023-04-26T10:39:21.366Z,11.55
2023-04-26T10:40:21.338Z,11.52
2023-04-26T10:41:21.340Z,11.37
2023-04-26T10:42:21.968Z,11.33
2023-04-26T10:43:21.278Z,11.28
2023-04-26T10:44:21.266Z,11.49
2023-04-26T10:45:21.250Z,11.43
2023-04-26T10:46:21.330Z,11.46
2023-04-26T10:47:21.255Z,11.55
2023-04-26T10:48:21.211Z,11.67
2023-04-26T10:49:21.240Z,11.52
2023-04-26T10:50:21.171Z,11.75
2023-04-26T10:51:21.152Z,12.12
2023-04-26T10:52:21.186Z,12.42
2023-04-26T10:53:21.123Z,12.70
2023-04-26T10:54:21.215Z,12.83
2023-04-26T10:55:21.099Z,13.07
2023-04-26T10:56:21.090Z,13.23
2023-04-26T10:57:21.064Z,13.33
2023-04-26T10:58:21.043Z,13.19
2023-04-26T11:00:21.133Z,12.68
2023-04-26T11:01:21.108Z,12.37
2023-04-26T11:02:21.036Z,12.34
2023-04-26T11:03:21.185Z,12.21
2023-04-26T11:04:21.146Z,12.37
2023-04-26T11:05:20.950Z,12.56
2023-04-26T11:06:20.929Z,12.77
2023-04-26T11:07:20.948Z,12.96
2023-04-26T11:08:20.960Z,13.01
2023-04-26T11:09:20.922Z,13.20
2023-04-26T11:10:20.869Z,13.28
2023-04-26T11:11:20.860Z,13.10
2023-04-26T11:12:20.841Z,13.19
2023-04-26T11:13:20.841Z,13.38
2023-04-26T11:14:20.858Z,13.10
2023-04-26T11:15:20.826Z,13.62
2023-04-26T11:16:20.867Z,14.37
2023-04-26T11:17:20.876Z,14.75
2023-04-26T11:18:20.782Z,15.35
2023-04-26T11:19:20.762Z,14.89
2023-04-26T11:20:20.730Z,14.22
2023-04-26T11:21:20.753Z,13.04
2023-04-26T11:22:20.730Z,12.59
2023-04-26T11:23:20.696Z,12.32
2023-04-26T11:24:20.711Z,12.12
2023-04-26T11:25:20.688Z,11.96
2023-04-26T11:26:20.644Z,11.80
2023-04-26T11:27:20.643Z,12.07
2023-04-26T11:28:20.629Z,12.32
2023-04-26T11:29:20.611Z,12.21
2023-04-26T11:30:20.629Z,12.28
2023-04-26T11:31:20.647Z,12.42
2023-04-26T11:32:20.578Z,12.45
2023-04-26T11:33:20.553Z,12.56
2023-04-26T11:34:20.583Z,12.60
2023-04-26T11:35:20.544Z,12.10
2023-04-26T11:36:20.578Z,12.46
2023-04-26T11:37:20.526Z,12.87
2023-04-26T11:38:20.501Z,13.03
2023-04-26T11:39:20.517Z,12.46
2023-04-26T11:40:20.479Z,12.89
2023-04-26T11:41:20.452Z,13.12
2023-04-26T11:42:20.466Z,13.12
2023-04-26T11:43:20.487Z,13.42
2023-04-26T11:44:20.453Z,13.82
2023-04-26T11:45:20.436Z,13.82
2023-04-26T11:46:20.460Z,13.69
2023-04-26T11:47:20.381Z,14.28
2023-04-26T11:48:20.488Z,14.28
2023-04-26T11:49:20.415Z,13.85
2023-04-26T11:50:20.403Z,13.87
2023-04-26T11:51:20.362Z,13.75
2023-04-26T11:52:20.322Z,13.87
2023-04-26T11:53:20.314Z,14.20
2023-04-26T11:54:20.339Z,14.64
2023-04-26T11:55:20.298Z,14.77
2023-04-26T11:56:20.379Z,13.49
2023-04-26T11:57:20.273Z,12.78
2023-04-26T11:58:20.260Z,12.49
2023-04-26T11:59:20.267Z,12.21
2023-04-26T12:00:20.260Z,11.99
2023-04-26T12:01:20.288Z,11.95
2023-04-26T12:02:20.274Z,11.94
2023-04-26T12:03:20.495Z,12.05
2023-04-26T12:04:20.475Z,12.37
2023-04-26T12:05:20.225Z,12.85
2023-04-26T12:06:20.176Z,14.06
2023-04-26T12:07:20.153Z,14.27
2023-04-26T12:08:20.129Z,14.73
2023-04-26T12:09:20.151Z,16.00
2023-04-26T12:10:20.127Z,16.96
2023-04-26T12:11:20.123Z,17.37
2023-04-26T12:12:20.123Z,17.66
2023-04-26T12:13:20.073Z,17.41
2023-04-26T12:14:20.085Z,16.35
2023-04-26T12:15:20.064Z,16.11
2023-04-26T12:16:26.194Z,15.90
2023-04-26T12:17:20.084Z,16.17
2023-04-26T12:18:20.054Z,15.89
2023-04-26T12:19:20.035Z,16.50
2023-04-26T12:20:20.015Z,17.15
2023-04-26T12:21:19.981Z,16.35
2023-04-26T12:22:20.009Z,16.07
2023-04-26T12:23:19.960Z,16.43
2023-04-26T12:24:19.965Z,17.04
2023-04-26T12:25:19.961Z,16.12
2023-04-26T12:26:19.953Z,15.75
2023-04-26T12:27:19.910Z,15.50
2023-04-26T12:28:19.906Z,15.25
2023-04-26T12:29:19.933Z,15.09
2023-04-26T12:30:19.915Z,15.25
2023-04-26T12:31:19.906Z,15.62
2023-04-26T12:32:21.362Z,15.90
2023-04-26T12:33:19.959Z,16.11
2023-04-26T12:34:19.873Z,16.56
2023-04-26T12:35:19.833Z,17.63
2023-04-26T12:36:19.832Z,17.90
2023-04-26T12:37:19.819Z,17.97
2023-04-26T12:38:19.827Z,17.30
2023-04-26T12:39:19.802Z,17.30
2023-04-26T12:40:19.785Z,16.43
2023-04-26T12:41:19.747Z,15.29
2023-04-26T12:42:19.773Z,15.07
2023-04-26T12:43:19.759Z,14.86
2023-04-26T12:44:22.158Z,14.68
2023-04-26T12:45:19.696Z,14.72
2023-04-26T12:46:19.753Z,14.20
2023-04-26T12:47:19.709Z,14.24
2023-04-26T12:48:19.735Z,14.52
2023-04-26T12:49:19.688Z,14.37
2023-04-26T12:50:19.665Z,14.65
2023-04-26T12:51:19.678Z,14.52
2023-04-26T12:52:19.629Z,13.87
2023-04-26T12:53:19.632Z,14.07
2023-04-26T12:54:19.643Z,14.32
2023-04-26T12:55:19.588Z,14.27
2023-04-26T12:56:19.610Z,14.35
2023-04-26T12:57:19.566Z,14.55
2023-04-26T12:58:19.560Z,14.57
2023-04-26T12:59:19.610Z,14.51
2023-04-26T13:00:19.539Z,14.75
2023-04-26T13:01:19.577Z,14.57
2023-04-26T13:02:21.242Z,14.37
2023-04-26T13:03:19.603Z,14.29
2023-04-26T13:04:19.589Z,14.69
2023-04-26T13:05:19.490Z,14.78
2023-04-26T13:06:19.485Z,14.75
2023-04-26T13:07:19.462Z,14.98
2023-04-26T13:08:19.471Z,15.46
2023-04-26T13:09:19.451Z,15.78
2023-04-26T13:10:19.446Z,15.49
2023-04-26T13:11:19.405Z,15.49
2023-04-26T13:12:19.399Z,15.57
2023-04-26T13:13:22.072Z,15.51
2023-04-26T13:14:19.411Z,15.01
2023-04-26T13:15:19.394Z,15.06
2023-04-26T13:16:19.442Z,15.19
2023-04-26T13:17:19.341Z,15.43
2023-04-26T13:18:19.361Z,15.96
2023-04-26T13:19:19.320Z,16.28
2023-04-26T13:20:19.351Z,16.68
2023-04-26T13:21:19.326Z,16.52
2023-04-26T13:22:19.325Z,16.07
2023-04-26T13:23:19.295Z,15.46
2023-04-26T13:24:19.320Z,14.75
2023-04-26T13:25:19.268Z,14.09
2023-04-26T13:26:19.286Z,13.81
2023-04-26T13:27:19.248Z,14.28
2023-04-26T13:28:19.245Z,14.77
2023-04-26T13:29:19.242Z,15.10
2023-04-26T13:30:19.225Z,15.19
2023-04-26T13:31:19.234Z,16.28
2023-04-26T13:32:19.228Z,17.00
2023-04-26T13:33:20.144Z,17.54
2023-04-26T13:34:19.224Z,17.87
2023-04-26T13:35:19.192Z,17.71
2023-04-26T13:36:19.163Z,17.06
2023-04-26T13:37:19.229Z,17.90
2023-04-26T13:38:19.167Z,18.26
2023-04-26T13:39:19.139Z,17.89
2023-04-26T13:40:19.156Z,18.08
2023-04-26T13:41:19.109Z,17.72
2023-04-26T13:42:19.141Z,17.95
2023-04-26T13:43:19.101Z,17.46
2023-04-26T13:44:21.304Z,17.38
2023-04-26T13:45:19.607Z,17.01
2023-04-26T13:46:19.099Z,16.24
2023-04-26T13:47:19.090Z,16.05
2023-04-26T13:48:19.058Z,14.89
2023-04-26T13:49:19.041Z,14.22
2023-04-26T13:50:19.090Z,14.45
2023-04-26T13:51:19.046Z,15.28
2023-04-26T13:52:19.025Z,15.78
2023-04-26T13:53:19.060Z,16.05
2023-04-26T13:54:19.033Z,16.11
2023-04-26T13:55:19.008Z,15.41
2023-04-26T13:56:18.979Z,16.43
2023-04-26T13:57:18.983Z,16.93
2023-04-26T13:58:18.959Z,16.86
2023-04-26T13:59:18.955Z,16.43
2023-04-26T14:00:18.965Z,17.04
2023-04-26T14:01:18.979Z,17.51
2023-04-26T14:02:19.035Z,18.00
2023-04-26T14:03:18.979Z,18.08
2023-04-26T14:04:19.015Z,18.41
2023-04-26T14:05:19.021Z,18.73
2023-04-26T14:06:18.875Z,17.90
2023-04-26T14:07:18.859Z,17.16
2023-04-26T14:08:18.873Z,17.82
2023-04-26T14:09:18.836Z,17.87
2023-04-26T14:10:18.857Z,17.25
2023-04-26T14:11:18.821Z,17.16
2023-04-26T14:12:18.818Z,18.27
2023-04-26T14:13:18.829Z,18.07
2023-04-26T14:14:18.834Z,17.72
2023-04-26T14:15:18.782Z,17.93
2023-04-26T14:16:18.874Z,18.42
2023-04-26T14:17:18.786Z,19.07
2023-04-26T14:18:18.961Z,19.73
2023-04-26T14:19:18.812Z,20.05
2023-04-26T14:20:18.766Z,20.58
2023-04-26T14:21:18.782Z,20.14
2023-04-26T14:22:18.733Z,20.67
2023-04-26T14:23:18.718Z,21.28
2023-04-26T14:24:18.714Z,21.38
2023-04-26T14:25:18.730Z,21.71
2023-04-26T14:26:18.736Z,21.35
2023-04-26T14:27:18.703Z,19.77
2023-04-26T14:28:18.806Z,20.06
2023-04-26T14:29:18.717Z,19.86
2023-04-26T14:30:18.675Z,19.56
2023-04-26T14:31:18.725Z,19.16
2023-04-26T14:32:18.692Z,18.67
2023-04-26T14:33:18.656Z,17.49
2023-04-26T14:34:18.710Z,17.37
2023-04-26T14:35:18.641Z,17.54
2023-04-26T14:36:18.686Z,17.56
2023-04-26T14:37:18.641Z,18.15
2023-04-26T14:38:18.666Z,18.37
2023-04-26T14:39:18.610Z,18.88
2023-04-26T14:40:18.649Z,19.25
2023-04-26T14:41:18.604Z,18.91
2023-04-26T14:42:18.617Z,18.60
2023-04-26T14:43:18.587Z,18.70
2023-04-26T14:44:18.619Z,19.31
2023-04-26T14:45:18.598Z,19.41
2023-04-26T14:46:18.663Z,18.72
2023-04-26T14:47:18.560Z,17.66
2023-04-26T14:48:18.736Z,16.70
2023-04-26T14:49:18.568Z,16.35
2023-04-26T14:50:18.570Z,16.93
2023-04-26T14:51:18.541Z,17.36
2023-04-26T14:52:18.559Z,17.48
2023-04-26T14:53:18.546Z,17.95
2023-04-26T14:54:18.526Z,17.21
2023-04-26T14:55:18.546Z,17.86
2023-04-26T14:56:18.545Z,18.00
2023-04-26T14:57:18.541Z,18.10
2023-04-26T14:58:21.522Z,17.74
2023-04-26T14:59:18.499Z,17.31
2023-04-26T15:00:18.499Z,17.31
2023-04-26T15:01:18.505Z,17.28
2023-04-26T15:02:18.540Z,17.08
2023-04-26T15:03:18.616Z,17.22
2023-04-26T15:04:18.650Z,17.33
2023-04-26T15:05:18.462Z,18.27
2023-04-26T15:06:18.481Z,18.52
2023-04-26T15:07:30.760Z,18.82
2023-04-26T15:08:18.733Z,18.69
2023-04-26T15:09:18.463Z,18.84
2023-04-26T15:10:18.538Z,19.04
2023-04-26T15:11:18.435Z,19.14
2023-04-26T15:12:18.437Z,19.11
2023-04-26T15:13:18.725Z,19.33
2023-04-26T15:14:18.418Z,19.07
2023-04-26T15:15:18.392Z,19.77
2023-04-26T15:16:18.429Z,20.05
2023-04-26T15:17:18.379Z,20.39
2023-04-26T15:18:18.429Z,21.17
2023-04-26T15:19:18.400Z,20.95
2023-04-26T15:20:18.396Z,21.22
2023-04-26T15:21:18.371Z,21.29
2023-04-26T15:22:18.358Z,20.73
2023-04-26T15:23:18.607Z,20.36
2023-04-26T15:24:18.395Z,19.88
2023-04-26T15:25:18.352Z,18.90
2023-04-26T15:26:18.333Z,17.92
2023-04-26T15:27:18.322Z,17.22
2023-04-26T15:28:18.374Z,16.82
2023-04-26T15:29:18.340Z,16.58
2023-04-26T15:30:18.310Z,17.21
2023-04-26T15:31:18.303Z,17.64
2023-04-26T15:32:18.305Z,18.18
2023-04-26T15:33:18.479Z,17.46
2023-04-26T15:34:18.317Z,17.38
2023-04-26T15:35:18.266Z,17.54
2023-04-26T15:36:18.287Z,17.44
2023-04-26T15:37:18.263Z,17.46
2023-04-26T15:38:18.255Z,16.82
2023-04-26T15:39:18.278Z,16.48
2023-04-26T15:40:18.263Z,15.96
2023-04-26T15:41:18.227Z,15.87
2023-04-26T15:42:18.273Z,15.25
2023-04-26T15:43:18.417Z,15.06
2023-04-26T15:44:18.230Z,14.32
2023-04-26T15:45:18.225Z,14.75
2023-04-26T15:46:18.206Z,15.64
2023-04-26T15:47:18.263Z,16.24
2023-04-26T15:48:18.183Z,16.71
2023-04-26T15:49:18.214Z,16.88
2023-04-26T15:50:18.197Z,17.07
2023-04-26T15:51:18.176Z,17.46
2023-04-26T15:52:18.187Z,17.30
2023-04-26T15:53:18.312Z,17.23
2023-04-26T15:54:18.140Z,17.04
2023-04-26T15:55:18.149Z,16.89
2023-04-26T15:56:18.168Z,16.50
2023-04-26T15:57:18.110Z,16.43
2023-04-26T15:58:18.093Z,16.50
2023-04-26T15:59:18.112Z,16.57
2023-04-26T16:00:18.098Z,16.64
2023-04-26T16:01:18.137Z,16.75
2023-04-26T16:02:18.150Z,16.94
2023-04-26T16:03:18.295Z,17.43
2023-04-26T16:04:18.223Z,18.00
2023-04-26T16:05:18.082Z,17.37
2023-04-26T16:06:18.050Z,17.34
2023-04-26T16:07:18.031Z,17.22
2023-04-26T16:08:27.963Z,16.97
2023-04-26T16:09:25.209Z,17.14
2023-04-26T16:10:18.018Z,17.93
2023-04-26T16:11:18.023Z,17.95
2023-04-26T16:12:17.987Z,17.43
2023-04-26T16:13:18.187Z,17.49
2023-04-26T16:14:18.002Z,17.70
2023-04-26T16:15:17.967Z,17.82
2023-04-26T16:16:41.675Z,16.41
2023-04-26T16:17:41.585Z,16.41
2023-04-26T16:18:41.531Z,16.66
2023-04-26T16:19:41.547Z,16.73
2023-04-26T16:20:41.536Z,15.72
2023-04-26T16:21:41.516Z,15.34
2023-04-26T16:23:40.020Z,14.35
2023-04-26T16:24:28.470Z,14.73
2023-04-26T16:27:41.176Z,14.64
2023-04-26T16:28:41.150Z,15.38
2023-04-26T16:29:41.172Z,16.08
2023-04-26T16:30:41.141Z,15.74
2023-04-26T16:31:41.140Z,15.92
2023-04-26T16:32:41.108Z,15.83
2023-04-26T16:33:41.217Z,16.11
2023-04-26T16:34:41.080Z,16.27
2023-04-26T16:35:41.094Z,16.11
2023-04-26T16:36:41.049Z,16.35
2023-04-26T16:37:41.043Z,16.53
2023-04-26T16:38:41.053Z,16.67
2023-04-26T16:39:41.043Z,16.81
2023-04-26T16:40:41.034Z,16.85
2023-04-26T16:41:41.034Z,17.07
2023-04-26T16:42:41.020Z,16.33
2023-04-26T16:43:41.026Z,16.23
2023-04-26T16:44:41.027Z,16.12
2023-04-26T16:45:41.002Z,15.84
2023-04-26T16:46:41.082Z,15.49
2023-04-26T16:47:40.972Z,15.34
2023-04-26T16:48:40.939Z,15.28
2023-04-26T16:50:27.575Z,14.98
2023-04-26T16:51:27.555Z,14.70
2023-04-26T16:52:27.553Z,14.47
2023-04-26T16:53:27.554Z,14.54
2023-04-26T16:54:27.530Z,14.61
2023-04-26T16:55:27.567Z,14.52
2023-04-26T16:56:27.527Z,14.50
2023-04-26T16:57:27.510Z,14.42
2023-04-26T16:58:27.490Z,14.36
2023-04-26T16:59:27.498Z,14.37
2023-04-26T17:00:27.461Z,14.32
2023-04-26T17:01:27.560Z,14.33
2023-04-26T17:02:27.495Z,14.12
2023-04-26T17:03:27.728Z,14.03
2023-04-26T17:04:27.708Z,13.82
